Time;durP1;ratioP1;P1;durP2;ratioP2;P2;SDS_P1;SDS_P2;PMS_P1;PMS_P2;Temp;Humidity;BMP_temperature;BMP_pressure;BME280_temperature;BME280_humidity;BME280_pressure;Samples;Min_cycle;Max_cycle;Signal;HPM_P1;HPM_P2
2021/12/01 00:00:19;;;;;;;2.03;1.33;;;;;;;2.40;81.25;100284.56;5013015;28;20092;-47
2021/12/01 00:02:46;;;;;;;2.92;1.42;;;;;;;2.38;81.24;100289.25;5013590;28;20075;-46
2021/12/01 00:05:12;;;;;;;2.53;1.33;;;;;;;2.40;81.32;100287.19;5015413;28;20068;-48
2021/12/01 00:07:38;;;;;;;3.35;1.50;;;;;;;2.40;81.13;100287.19;5012884;28;20057;-49
2021/12/01 00:10:06;;;;;;;2.53;1.60;;;;;;;2.38;80.95;100290.06;5014104;28;20040;-48
2021/12/01 00:12:32;;;;;;;2.58;1.75;;;;;;;2.38;81.07;100297.97;5015548;28;20061;-49
2021/12/01 00:14:58;;;;;;;2.03;1.30;;;;;;;2.38;80.90;100299.81;5016102;28;20033;-49
2021/12/01 00:17:23;;;;;;;4.65;1.20;;;;;;;2.37;80.92;100299.00;5014635;28;20040;-50
2021/12/01 00:19:49;;;;;;;2.05;1.10;;;;;;;2.36;80.79;100299.22;5015082;28;20030;-47
2021/12/01 00:22:14;;;;;;;2.58;1.20;;;;;;;2.35;80.97;100305.50;5013040;28;20129;-48
2021/12/01 00:24:40;;;;;;;1.92;1.05;;;;;;;2.32;80.91;100301.41;5014774;28;20109;-47
2021/12/01 00:27:05;;;;;;;1.48;0.98;;;;;;;2.33;80.91;100307.53;5012343;28;20021;-48
2021/12/01 00:29:30;;;;;;;1.63;0.90;;;;;;;2.33;81.01;100304.88;5011797;28;20026;-47
2021/12/01 00:31:56;;;;;;;1.65;0.90;;;;;;;2.35;80.80;100305.50;5016756;28;20498;-47
2021/12/01 00:34:22;;;;;;;6.28;1.35;;;;;;;2.34;80.73;100302.06;5014977;28;20108;-45
2021/12/01 00:36:47;;;;;;;2.47;1.20;;;;;;;2.34;80.47;100310.00;5014759;28;20095;-45
2021/12/01 00:39:13;;;;;;;2.42;1.52;;;;;;;2.33;80.46;100302.25;5017477;28;20013;-46
2021/12/01 00:41:38;;;;;;;2.58;0.98;;;;;;;2.34;80.48;100309.19;5013288;28;20300;-46
2021/12/01 00:44:06;;;;;;;1.50;1.15;;;;;;;2.33;80.42;100307.53;5012293;28;20152;-46
2021/12/01 00:46:39;;;;;;;2.78;0.98;;;;;;;2.34;80.37;100317.09;5014356;28;20021;-45
2021/12/01 00:49:04;;;;;;;1.45;1.13;;;;;;;2.33;80.22;100312.81;5011293;28;20116;-45
2021/12/01 00:51:30;;;;;;;1.17;1.00;;;;;;;2.35;80.15;100311.63;5015551;28;20045;-49
2021/12/01 00:53:55;;;;;;;1.67;1.20;;;;;;;2.37;80.12;100319.34;5013290;28;20037;-46
2021/12/01 00:56:20;;;;;;;1.38;0.90;;;;;;;2.38;80.19;100313.03;5017366;28;20026;-46
2021/12/01 00:58:46;;;;;;;1.30;1.02;;;;;;;2.37;80.04;100311.41;5010937;28;20111;-46
2021/12/01 01:01:11;;;;;;;2.42;0.90;;;;;;;2.36;79.93;100315.06;5014666;28;20033;-45
2021/12/01 01:03:37;;;;;;;1.88;1.17;;;;;;;2.33;79.86;100318.09;5018436;28;20103;-46
2021/12/01 01:06:03;;;;;;;0.98;0.75;;;;;;;2.33;80.01;100318.09;5019344;28;20372;-47
2021/12/01 01:08:29;;;;;;;2.03;0.77;;;;;;;2.32;80.10;100313.84;5016424;28;20036;-46
2021/12/01 01:16:25;;;;;;;0.68;0.68;;;;;;;2.30;79.80;100313.22;5014559;28;20068;-46
2021/12/01 01:18:53;;;;;;;3.15;0.98;;;;;;;2.29;79.95;100330.09;5012931;28;20067;-47
2021/12/01 01:21:20;;;;;;;2.20;0.88;;;;;;;2.29;80.15;100309.75;5011513;28;20399;-45
2021/12/01 01:23:45;;;;;;;2.92;0.80;;;;;;;2.29;79.76;100312.41;5015407;28;20065;-48
2021/12/01 01:26:16;;;;;;;1.23;0.88;;;;;;;2.29;79.72;100311.59;5011207;28;20049;-45
2021/12/01 01:28:43;;;;;;;1.73;0.70;;;;;;;2.29;79.83;100309.75;5011529;28;20484;-45
2021/12/01 01:31:10;;;;;;;1.27;0.88;;;;;;;2.28;79.97;100304.69;5009725;28;20126;-47
2021/12/01 01:33:35;;;;;;;0.65;0.55;;;;;;;2.27;79.44;100303.06;5010656;28;20030;-46
2021/12/01 01:36:01;;;;;;;1.23;0.82;;;;;;;2.22;79.79;100316.09;5013656;28;20502;-46
2021/12/01 01:38:29;;;;;;;1.92;0.85;;;;;;;2.18;79.80;100320.97;5013064;28;20021;-45
2021/12/01 01:40:55;;;;;;;0.93;0.52;;;;;;;2.18;80.14;100314.88;5012476;28;20017;-45
2021/12/01 01:43:20;;;;;;;1.55;0.75;;;;;;;2.17;80.04;100295.56;5014135;28;20526;-46
2021/12/01 01:45:46;;;;;;;1.50;0.90;;;;;;;2.15;79.96;100288.81;5015335;28;20040;-46
2021/12/01 01:48:14;;;;;;;2.42;0.82;;;;;;;2.15;79.99;100288.81;5013333;28;20054;-48
2021/12/01 01:50:42;;;;;;;4.28;1.15;;;;;;;2.13;79.80;100281.91;5015787;28;20021;-46
2021/12/01 01:53:23;;;;;;;5.85;1.20;;;;;;;2.09;79.84;100283.34;5012707;28;20052;-45
2021/12/01 01:55:51;;;;;;;2.17;1.20;;;;;;;2.13;79.83;100276.63;5013894;28;20435;-45
2021/12/01 01:58:18;;;;;;;0.90;0.70;;;;;;;2.11;79.48;100280.50;5011160;28;20030;-46
2021/12/01 02:00:51;;;;;;;1.30;0.77;;;;;;;2.09;79.68;100279.91;5011782;28;20234;-48
2021/12/01 02:03:18;;;;;;;1.35;0.85;;;;;;;2.07;79.47;100272.16;5011202;28;20182;-46
2021/12/01 02:05:44;;;;;;;2.67;0.60;;;;;;;2.05;79.59;100263.63;5019255;28;20099;-49
2021/12/01 02:08:20;;;;;;;1.33;0.70;;;;;;;2.03;79.64;100262.22;5013851;28;20051;-49
2021/12/01 02:10:50;;;;;;;1.83;0.90;;;;;;;2.01;79.76;100264.25;5015150;28;20460;-48
2021/12/01 02:13:18;;;;;;;1.10;0.57;;;;;;;2.00;79.70;100252.88;5019473;28;20037;-46
2021/12/01 02:15:45;;;;;;;0.60;0.60;;;;;;;2.00;79.51;100252.88;5016224;28;20022;-46
2021/12/01 02:18:11;;;;;;;0.82;0.60;;;;;;;1.98;79.25;100238.25;5017609;28;20383;-45
2021/12/01 02:20:37;;;;;;;1.95;0.70;;;;;;;1.95;79.39;100230.69;5017672;28;20017;-46
2021/12/01 02:23:02;;;;;;;1.95;0.93;;;;;;;1.92;79.56;100231.94;5016362;28;20567;-47
2021/12/01 02:25:28;;;;;;;3.10;0.93;;;;;;;1.90;79.37;100227.88;5016762;28;20124;-48
2021/12/01 02:27:55;;;;;;;1.95;0.60;;;;;;;1.88;79.63;100220.16;5016702;28;20022;-48
2021/12/01 02:30:23;;;;;;;1.10;0.63;;;;;;;1.85;79.56;100215.28;5013767;28;20029;-46
2021/12/01 02:32:49;;;;;;;2.17;0.90;;;;;;;1.81;79.50;100212.25;5015771;28;20040;-46
2021/12/01 02:35:15;;;;;;;3.00;1.20;;;;;;;1.78;79.58;100206.53;5018197;28;21651;-45
2021/12/01 02:37:40;;;;;;;1.23;0.88;;;;;;;1.75;79.62;100201.66;5017248;28;20116;-48
2021/12/01 02:40:07;;;;;;;2.33;0.85;;;;;;;1.76;79.72;100208.56;5019556;28;20350;-48
2021/12/01 02:42:32;;;;;;;2.08;0.90;;;;;;;1.75;79.63;100210.41;5015176;28;20030;-48
2021/12/01 02:44:58;;;;;;;3.17;0.63;;;;;;;1.74;79.55;100205.31;5015554;28;20403;-46
2021/12/01 02:47:28;;;;;;;1.13;0.70;;;;;;;1.72;79.50;100202.06;5016932;28;20037;-47
2021/12/01 02:49:54;;;;;;;3.60;0.82;;;;;;;1.67;79.66;100204.50;5017033;28;20371;-48
2021/12/01 02:52:24;;;;;;;1.60;0.73;;;;;;;1.68;79.71;100203.50;5017435;28;20032;-48
2021/12/01 02:54:50;;;;;;;2.53;0.70;;;;;;;1.67;79.54;100197.41;5017200;28;20566;-46
2021/12/01 02:57:15;;;;;;;1.25;0.77;;;;;;;1.65;79.53;100178.31;5022507;28;20120;-45
2021/12/01 02:59:42;;;;;;;1.05;0.60;;;;;;;1.65;79.69;100161.66;5016237;28;20454;-45
2021/12/01 03:02:08;;;;;;;3.85;0.90;;;;;;;1.64;79.58;100170.59;5013142;28;20476;-46
2021/12/01 03:04:35;;;;;;;1.85;0.75;;;;;;;1.61;79.67;100176.25;5016262;28;20068;-46
2021/12/01 03:07:02;;;;;;;1.95;0.80;;;;;;;1.60;79.61;100164.06;5016350;28;20026;-46
2021/12/01 03:09:28;;;;;;;0.82;0.52;;;;;;;1.58;79.68;100169.56;5013333;28;20072;-48
2021/12/01 03:11:53;;;;;;;1.40;0.65;;;;;;;1.59;79.58;100159.81;5017562;28;20052;-47
2021/12/01 03:14:20;;;;;;;4.85;0.70;;;;;;;1.57;79.47;100159.22;5016084;28;20022;-46
2021/12/01 03:16:47;;;;;;;1.35;0.70;;;;;;;1.56;79.53;100154.94;5014526;28;20084;-45
2021/12/01 03:19:13;;;;;;;1.80;0.90;;;;;;;1.55;79.63;100148.03;5017194;28;20028;-45
2021/12/01 03:21:40;;;;;;;3.70;0.77;;;;;;;1.53;79.34;100142.97;5014813;28;20388;-45
2021/12/01 03:24:06;;;;;;;3.00;0.60;;;;;;;1.52;79.44;100142.16;5013537;28;20037;-45
2021/12/01 03:26:33;;;;;;;4.32;0.90;;;;;;;1.51;79.47;100127.34;5016862;28;20053;-45
2021/12/01 03:28:59;;;;;;;3.28;1.00;;;;;;;1.50;79.50;100128.34;5017354;28;20087;-44
2021/12/01 03:31:26;;;;;;;1.23;0.82;;;;;;;1.50;79.38;100124.91;5015122;28;20030;-45
2021/12/01 03:33:52;;;;;;;1.30;0.73;;;;;;;1.48;79.42;100122.47;5014480;28;20034;-46
2021/12/01 03:36:17;;;;;;;1.30;0.68;;;;;;;1.47;79.34;100117.38;5016397;28;20036;-45
2021/12/01 03:38:43;;;;;;;3.83;0.63;;;;;;;1.45;79.32;100112.31;5014407;28;20025;-44
2021/12/01 03:41:08;;;;;;;3.53;1.00;;;;;;;1.43;79.39;100103.75;5013894;28;20075;-45
2021/12/01 03:43:34;;;;;;;1.80;0.68;;;;;;;1.42;79.51;100115.34;5015371;28;20060;-45
2021/12/01 03:45:59;;;;;;;3.05;0.73;;;;;;;1.39;79.57;100102.56;5013520;28;20471;-45
2021/12/01 03:48:25;;;;;;;3.15;1.08;;;;;;;1.37;79.47;100096.66;5018434;28;20040;-45
2021/12/01 03:50:52;;;;;;;2.83;0.95;;;;;;;1.36;79.57;100094.25;5015808;28;20430;-45
2021/12/01 03:53:19;;;;;;;2.05;0.98;;;;;;;1.34;79.67;100085.72;5014739;28;20139;-46
2021/12/01 03:55:45;;;;;;;2.53;0.82;;;;;;;1.32;79.67;100093.03;5013259;28;20030;-45
2021/12/01 03:58:11;;;;;;;2.85;1.05;;;;;;;1.26;79.58;100084.09;5017393;28;20048;-47
2021/12/01 04:00:37;;;;;;;3.38;1.05;;;;;;;1.21;79.84;100082.06;5014642;28;20404;-46
2021/12/01 04:03:03;;;;;;;2.63;0.65;;;;;;;1.20;79.86;100076.97;5012892;28;20083;-46
2021/12/01 04:05:28;;;;;;;2.17;0.80;;;;;;;1.17;79.92;100075.56;5013095;28;20072;-45
2021/12/01 04:07:54;;;;;;;2.88;0.88;;;;;;;1.17;80.09;100070.28;5013012;28;20025;-45
2021/12/01 04:10:20;;;;;;;2.50;0.77;;;;;;;1.18;80.23;100065.81;5012678;28;20088;-45
2021/12/01 04:12:46;;;;;;;6.35;1.10;;;;;;;1.18;80.25;100071.09;5013004;28;20033;-46
2021/12/01 04:15:13;;;;;;;3.75;1.15;;;;;;;1.20;80.28;100063.78;5014045;28;20060;-45
2021/12/01 04:17:41;;;;;;;4.00;1.30;;;;;;;1.23;80.33;100057.28;5020853;28;20115;-46
2021/12/01 04:20:07;;;;;;;2.90;1.05;;;;;;;1.20;80.24;100059.31;5012979;28;20029;-44
2021/12/01 04:22:33;;;;;;;2.78;1.20;;;;;;;1.21;80.40;100050.38;5012711;28;20025;-46
2021/12/01 04:24:59;;;;;;;1.25;0.90;;;;;;;1.22;80.52;100051.19;5015494;28;20049;-46
2021/12/01 04:27:24;;;;;;;1.65;1.08;;;;;;;1.22;80.34;100045.91;5013717;28;20535;-45
2021/12/01 04:29:50;;;;;;;1.80;0.98;;;;;;;1.21;80.32;100045.09;5015842;28;20471;-45
2021/12/01 04:32:15;;;;;;;3.10;1.30;;;;;;;1.21;80.58;100041.66;5012997;28;20084;-45
2021/12/01 04:34:41;;;;;;;3.97;1.30;;;;;;;1.23;80.48;100036.97;5015003;28;20272;-46
2021/12/01 04:37:06;;;;;;;3.42;1.27;;;;;;;1.23;80.61;100031.72;5013547;28;20567;-45
2021/12/01 04:39:33;;;;;;;4.50;1.63;;;;;;;1.25;80.69;100029.66;5015051;28;20022;-46
2021/12/01 04:42:05;;;;;;;1.30;1.20;;;;;;;1.25;80.65;100020.94;5013824;28;20029;-45
2021/12/01 04:44:33;;;;;;;2.65;1.00;;;;;;;1.21;80.84;100018.72;5016441;28;20116;-46
2021/12/01 04:47:02;;;;;;;4.00;1.50;;;;;;;1.19;80.86;100019.94;5015328;28;20064;-44
2021/12/01 04:49:28;;;;;;;3.13;1.20;;;;;;;1.16;81.35;100015.88;5015428;28;20212;-46
2021/12/01 04:52:00;;;;;;;2.83;1.10;;;;;;;1.12;81.33;100000.69;5013522;28;20087;-47
2021/12/01 04:54:26;;;;;;;3.33;1.35;;;;;;;1.12;81.56;100000.69;5012514;28;20039;-45
2021/12/01 04:56:53;;;;;;;1.13;1.00;;;;;;;1.10;81.55;100000.88;5015911;28;20044;-45
2021/12/01 04:59:20;;;;;;;2.33;1.30;;;;;;;1.11;81.68;99993.78;5010912;28;20025;-45
2021/12/01 05:01:47;;;;;;;1.75;1.10;;;;;;;1.13;82.02;99995.19;5014509;28;20487;-45
2021/12/01 05:04:12;;;;;;;4.20;1.42;;;;;;;1.13;82.05;99995.19;5011958;28;20048;-45
2021/12/01 05:06:39;;;;;;;3.55;1.33;;;;;;;1.16;82.23;99989.50;5012375;28;20243;-46
2021/12/01 05:09:06;;;;;;;2.72;1.48;;;;;;;1.17;82.03;99977.13;5012307;28;20029;-46
2021/12/01 05:11:32;;;;;;;2.95;1.05;;;;;;;1.18;82.13;99978.75;5017672;28;20045;-45
2021/12/01 05:13:57;;;;;;;2.15;1.17;;;;;;;1.20;82.06;99977.53;5014422;28;20033;-45
2021/12/01 05:16:23;;;;;;;2.13;1.30;;;;;;;1.21;82.30;99970.41;5013336;28;20055;-46
2021/12/01 05:18:49;;;;;;;4.68;1.40;;;;;;;1.23;82.42;99959.66;5010458;28;20129;-46
2021/12/01 05:21:15;;;;;;;6.15;1.50;;;;;;;1.23;82.30;99957.81;5017898;28;20105;-45
2021/12/01 05:23:40;;;;;;;3.90;1.38;;;;;;;1.24;82.39;99950.72;5017388;28;20596;-45
2021/12/01 05:26:07;;;;;;;7.60;1.20;;;;;;;1.28;82.31;99944.84;5013148;28;20025;-45
2021/12/01 05:28:33;;;;;;;2.90;1.10;;;;;;;1.30;82.49;99940.16;5013738;28;20496;-44
2021/12/01 05:30:58;;;;;;;3.10;1.40;;;;;;;1.31;82.65;99938.34;5014396;28;20056;-45
2021/12/01 05:33:24;;;;;;;3.13;1.60;;;;;;;1.30;82.59;99924.31;5017064;28;20072;-45
2021/12/01 05:35:49;;;;;;;2.03;1.17;;;;;;;1.32;82.51;99919.66;5015169;28;20471;-45
2021/12/01 05:38:16;;;;;;;2.53;1.20;;;;;;;1.31;82.70;99912.75;5012448;28;20075;-45
2021/12/01 05:40:41;;;;;;;6.45;1.55;;;;;;;1.33;82.75;99905.44;5014144;28;20032;-45
2021/12/01 05:43:08;;;;;;;4.03;1.20;;;;;;;1.34;82.92;99907.06;5013170;28;20034;-45
2021/12/01 05:45:33;;;;;;;2.80;1.27;;;;;;;1.33;83.16;99902.78;5020970;28;20033;-45
2021/12/01 05:47:59;;;;;;;7.60;1.42;;;;;;;1.33;83.29;99892.25;5023807;28;20087;-45
2021/12/01 05:50:25;;;;;;;2.83;1.40;;;;;;;1.34;82.83;99891.22;5019370;28;20025;-45
2021/12/01 05:52:50;;;;;;;9.35;2.03;;;;;;;1.35;83.12;99882.28;5019562;28;20069;-45
2021/12/01 05:55:16;;;;;;;1.85;1.30;;;;;;;1.36;83.25;99877.81;5016790;28;20125;-45
2021/12/01 05:57:41;;;;;;;4.07;1.30;;;;;;;1.38;83.25;99879.22;5017802;28;20029;-45
2021/12/01 06:00:11;;;;;;;12.15;1.90;;;;;;;1.41;83.31;99873.50;5018390;28;20057;-46
2021/12/01 06:02:38;;;;;;;4.68;1.40;;;;;;;1.44;83.55;99872.31;5017866;28;20018;-45
2021/12/01 06:05:04;;;;;;;6.57;1.70;;;;;;;1.47;83.47;99869.25;5019939;28;20082;-45
2021/12/01 06:07:30;;;;;;;6.97;1.98;;;;;;;1.48;83.58;99853.19;5017900;28;20061;-47
2021/12/01 06:10:00;;;;;;;2.05;1.20;;;;;;;1.49;83.35;99849.53;5016423;28;20429;-46
2021/12/01 06:12:25;;;;;;;4.68;1.70;;;;;;;1.54;83.44;99846.25;5020749;28;20375;-46
2021/12/01 06:14:51;;;;;;;6.07;1.50;;;;;;;1.54;83.61;99832.25;5019517;28;20117;-46
2021/12/01 06:17:17;;;;;;;3.75;1.60;;;;;;;1.56;83.64;99835.47;5014125;28;20486;-46
2021/12/01 06:19:42;;;;;;;6.85;1.92;;;;;;;1.58;83.67;99820.22;5013639;28;20103;-46
2021/12/01 06:22:08;;;;;;;5.53;1.77;;;;;;;1.58;83.80;99818.41;5029007;28;20037;-47
2021/12/01 06:24:35;;;;;;;7.80;1.98;;;;;;;1.62;83.82;99805.63;5015651;28;20108;-46
2021/12/01 06:27:01;;;;;;;11.32;2.05;;;;;;;1.62;84.03;99809.06;5015257;28;20048;-47
2021/12/01 06:29:26;;;;;;;5.63;1.58;;;;;;;1.64;83.88;99801.72;5014498;28;20468;-47
2021/12/01 06:31:52;;;;;;;5.65;1.73;;;;;;;1.69;84.12;99798.44;5013065;28;20044;-47
2021/12/01 06:34:17;;;;;;;12.98;2.53;;;;;;;1.68;84.04;99792.34;5016061;28;20029;-47
2021/12/01 06:36:43;;;;;;;7.95;2.15;;;;;;;1.70;84.13;99781.56;5015075;28;20037;-47
2021/12/01 06:39:09;;;;;;;6.10;2.15;;;;;;;1.71;83.78;99781.38;5013443;28;20026;-47
2021/12/01 06:41:35;;;;;;;3.55;1.63;;;;;;;1.72;84.27;99777.69;5018688;28;20067;-47
2021/12/01 06:44:01;;;;;;;7.03;1.73;;;;;;;1.74;84.37;99772.19;5013811;28;20140;-48
2021/12/01 06:46:28;;;;;;;6.00;1.80;;;;;;;1.75;84.30;99771.19;5015625;28;20562;-46
2021/12/01 06:48:54;;;;;;;5.18;1.80;;;;;;;1.75;84.55;99766.69;5014799;28;20029;-47
2021/12/01 06:51:20;;;;;;;7.38;2.47;;;;;;;1.77;84.61;99769.94;5013552;28;20014;-46
2021/12/01 06:53:45;;;;;;;8.23;1.73;;;;;;;1.78;84.74;99752.25;5014016;28;20038;-48
2021/12/01 06:56:11;;;;;;;7.32;2.75;;;;;;;1.79;84.78;99756.50;5011195;28;20097;-47
2021/12/01 06:58:38;;;;;;;7.50;2.00;;;;;;;1.80;84.75;99756.31;5018788;28;20061;-47
2021/12/01 07:01:06;;;;;;;8.55;2.58;;;;;;;1.81;84.77;99743.94;5012349;28;20516;-47
2021/12/01 07:03:32;;;;;;;4.93;2.15;;;;;;;1.82;84.91;99745.53;5014416;28;20037;-46
2021/12/01 07:05:58;;;;;;;6.50;2.38;;;;;;;1.82;85.02;99740.25;5017620;28;20026;-46
2021/12/01 07:08:23;;;;;;;4.88;2.10;;;;;;;1.83;85.06;99733.94;5009670;28;20472;-46
2021/12/01 07:10:49;;;;;;;9.07;1.95;;;;;;;1.84;85.03;99725.00;5013358;28;20026;-47
2021/12/01 07:13:15;;;;;;;4.90;2.20;;;;;;;1.86;85.20;99735.34;5012549;28;20399;-47
2021/12/01 07:15:41;;;;;;;4.63;1.70;;;;;;;1.88;85.28;99728.81;5015616;28;20030;-46
2021/12/01 07:18:07;;;;;;;8.57;2.05;;;;;;;1.89;85.31;99724.34;5007430;28;20053;-47
2021/12/01 07:20:33;;;;;;;9.48;2.35;;;;;;;1.88;85.52;99718.25;5012089;28;20034;-47
2021/12/01 07:23:02;;;;;;;6.22;2.10;;;;;;;1.89;85.59;99713.78;5012160;28;20053;-46
2021/12/01 07:25:28;;;;;;;4.85;1.95;;;;;;;1.89;85.53;99701.38;5010273;28;20112;-46
2021/12/01 07:27:53;;;;;;;9.10;2.33;;;;;;;1.90;85.73;99694.25;5011790;28;20037;-47
2021/12/01 07:30:19;;;;;;;11.60;2.85;;;;;;;1.91;85.80;99677.38;5011259;28;20029;-46
2021/12/01 07:32:44;;;;;;;6.90;2.58;;;;;;;1.91;86.20;99667.63;5012333;28;20045;-47
2021/12/01 07:35:10;;;;;;;8.07;2.33;;;;;;;1.93;86.12;99654.19;5015487;28;20025;-47
2021/12/01 07:37:35;;;;;;;8.00;2.00;;;;;;;1.94;86.01;99643.41;5013546;28;20549;-46
2021/12/01 07:40:01;;;;;;;11.52;2.50;;;;;;;1.95;86.43;99638.94;5016874;28;20025;-47
2021/12/01 07:42:26;;;;;;;6.15;2.17;;;;;;;1.97;86.36;99626.31;5015275;28;20040;-47
2021/12/01 07:44:52;;;;;;;7.03;2.08;;;;;;;1.98;86.46;99623.47;5011370;28;20045;-46
2021/12/01 07:47:17;;;;;;;8.55;2.50;;;;;;;2.00;86.49;99613.50;5017109;28;20033;-46
2021/12/01 07:49:43;;;;;;;7.78;2.28;;;;;;;2.01;86.62;99606.38;5012385;28;20086;-47
2021/12/01 07:52:09;;;;;;;7.75;2.00;;;;;;;2.03;86.61;99591.91;5013870;28;20041;-46
2021/12/01 07:54:36;;;;;;;9.48;2.40;;;;;;;2.07;86.74;99592.28;5013890;28;20057;-47
2021/12/01 07:57:03;;;;;;;7.05;2.58;;;;;;;2.08;86.75;99588.59;5015417;28;20056;-46
2021/12/01 07:59:29;;;;;;;5.28;2.17;;;;;;;2.11;86.72;99586.31;5011802;28;20028;-47
2021/12/01 08:01:55;;;;;;;8.85;2.75;;;;;;;2.12;87.00;99573.91;5015869;28;20044;-46
2021/12/01 08:04:20;;;;;;;8.90;2.40;;;;;;;2.16;86.83;99571.66;5014305;28;20029;-47
2021/12/01 08:06:46;;;;;;;8.40;2.65;;;;;;;2.17;87.21;99560.88;5014267;28;20116;-47
2021/12/01 08:09:12;;;;;;;7.20;2.35;;;;;;;2.21;86.98;99561.22;5012692;28;20038;-46
2021/12/01 08:11:38;;;;;;;5.18;2.35;;;;;;;2.23;87.00;99545.94;5012352;28;20319;-46
2021/12/01 08:14:06;;;;;;;7.57;1.98;;;;;;;2.25;87.20;99541.25;5011740;28;20038;-48
2021/12/01 08:16:36;;;;;;;5.82;1.75;;;;;;;2.26;87.28;99542.84;5011913;28;20065;-47
2021/12/01 08:19:02;;;;;;;6.18;2.42;;;;;;;2.27;87.37;99528.63;5014375;28;20498;-47
2021/12/01 08:21:28;;;;;;;8.13;2.30;;;;;;;2.30;87.50;99528.16;5014275;28;20036;-46
2021/12/01 08:23:53;;;;;;;8.25;2.55;;;;;;;2.31;87.41;99522.66;5014088;28;20025;-46
2021/12/01 08:26:20;;;;;;;6.28;2.22;;;;;;;2.33;87.86;99514.50;5009351;28;20445;-45
2021/12/01 08:28:47;;;;;;;4.82;1.88;;;;;;;2.34;87.97;99510.84;5015775;28;20045;-47
2021/12/01 08:31:17;;;;;;;7.57;2.72;;;;;;;2.37;87.92;99495.34;5015715;28;20400;-46
2021/12/01 08:33:44;;;;;;;7.47;2.55;;;;;;;2.38;88.06;99490.88;5013023;28;20119;-46
2021/12/01 08:36:10;;;;;;;5.63;1.73;;;;;;;2.41;88.19;99488.56;5029313;28;20487;-46
2021/12/01 08:38:37;;;;;;;5.82;2.13;;;;;;;2.42;88.37;99482.25;5023256;28;20033;-47
2021/12/01 08:41:04;;;;;;;14.18;3.63;;;;;;;2.46;88.44;99471.22;5011551;28;20045;-48
2021/12/01 08:43:30;;;;;;;12.00;2.20;;;;;;;2.47;88.73;99467.53;5022553;28;20534;-47
2021/12/01 08:45:56;;;;;;;6.38;1.98;;;;;;;2.49;88.90;99453.06;5013607;28;20113;-49
2021/12/01 08:48:22;;;;;;;9.23;2.15;;;;;;;2.52;88.74;99449.19;5013405;28;20026;-47
2021/12/01 08:50:48;;;;;;;7.75;2.13;;;;;;;2.54;89.04;99432.06;5012187;28;20032;-46
2021/12/01 08:53:13;;;;;;;5.75;1.77;;;;;;;2.55;89.07;99431.00;5015858;28;20033;-48
2021/12/01 08:55:41;;;;;;;9.63;4.10;;;;;;;2.58;88.94;99417.34;5013055;28;20092;-48
2021/12/01 08:58:12;;;;;;;10.13;1.92;;;;;;;2.61;89.07;99422.16;5013084;28;20036;-49
2021/12/01 09:00:42;;;;;;;11.70;2.33;;;;;;;2.65;89.26;99420.66;5015975;28;20065;-46
2021/12/01 09:03:08;;;;;;;8.15;2.40;;;;;;;2.67;89.45;99413.31;5014093;28;20561;-46
2021/12/01 09:05:33;;;;;;;5.55;1.83;;;;;;;2.70;89.83;99404.13;5012652;28;20029;-47
2021/12/01 09:07:59;;;;;;;8.55;2.25;;;;;;;2.72;89.76;99402.88;5009690;28;20071;-46
2021/12/01 09:10:24;;;;;;;5.32;1.60;;;;;;;2.75;89.78;99401.59;5011941;28;20435;-47
2021/12/01 09:12:49;;;;;;;5.20;1.55;;;;;;;2.78;89.77;99387.09;5019935;23;20045;-79
2021/12/01 09:15:15;;;;;;;3.22;1.63;;;;;;;2.81;89.63;99390.09;4999169;28;20045;-79
2021/12/01 09:17:41;;;;;;;7.90;2.00;;;;;;;2.82;90.48;99375.81;4987247;28;20036;-80
2021/12/01 09:20:08;;;;;;;4.03;1.73;;;;;;;2.84;90.50;99381.69;4987782;28;20480;-79
2021/12/01 09:22:34;;;;;;;5.25;1.60;;;;;;;2.88;90.78;99374.13;4990370;28;20030;-79
2021/12/01 09:25:00;;;;;;;3.30;1.77;;;;;;;2.89;90.80;99365.16;4994238;28;20085;-79
2021/12/01 09:27:25;;;;;;;7.80;2.63;;;;;;;2.92;90.79;99360.19;5000231;28;20034;-79
2021/12/01 09:29:53;;;;;;;4.40;1.77;;;;;;;2.95;91.17;99353.63;4979924;28;20025;-79
2021/12/01 09:32:18;;;;;;;5.47;1.88;;;;;;;2.99;90.90;99354.75;4976743;28;20440;-79
2021/12/01 09:34:44;;;;;;;3.38;1.80;;;;;;;3.01;91.14;99347.41;5004516;28;20091;-79
2021/12/01 09:37:10;;;;;;;4.57;2.03;;;;;;;3.04;90.91;99346.94;4990477;28;21621;-79
2021/12/01 09:39:36;;;;;;;6.38;1.98;;;;;;;3.06;91.02;99334.28;5003924;28;20074;-79
2021/12/01 09:42:02;;;;;;;3.88;2.10;;;;;;;3.09;91.44;99325.06;4981946;28;20022;-79
2021/12/01 09:44:29;;;;;;;4.72;2.08;;;;;;;3.10;91.32;99324.84;5000433;28;20388;-79
2021/12/01 09:46:55;;;;;;;4.30;2.45;;;;;;;3.12;91.59;99312.19;4988563;28;20090;-79
2021/12/01 09:49:20;;;;;;;6.40;2.65;;;;;;;3.16;91.53;99315.97;4989806;28;20458;-79
2021/12/01 09:51:46;;;;;;;3.80;2.30;;;;;;;3.19;91.87;99309.38;4986689;28;20030;-79
2021/12/01 09:54:12;;;;;;;4.32;2.40;;;;;;;3.22;91.45;99311.56;4983547;28;20058;-79
2021/12/01 09:56:37;;;;;;;4.88;2.67;;;;;;;3.25;91.83;99311.13;4988340;28;20064;-79
2021/12/01 09:59:03;;;;;;;7.22;2.45;;;;;;;3.28;91.85;99295.56;5000501;28;20099;-79
2021/12/01 10:01:29;;;;;;;4.78;2.30;;;;;;;3.32;91.59;99295.88;4996067;28;20018;-79
2021/12/01 10:03:54;;;;;;;6.88;3.53;;;;;;;3.35;92.09;99284.81;4983235;28;20030;-78
2021/12/01 10:06:23;;;;;;;7.55;4.07;;;;;;;3.38;92.02;99278.25;4983993;28;20026;-79
2021/12/01 10:08:54;;;;;;;4.72;2.80;;;;;;;3.43;91.68;99278.38;4997408;28;20021;-79
2021/12/01 10:11:39;;;;;;;6.05;2.95;;;;;;;3.42;91.81;99264.31;5002661;28;20365;-79
2021/12/01 10:14:19;;;;;;;4.28;2.47;;;;;;;3.45;91.90;99260.38;4989139;28;20045;-80
2021/12/01 10:16:46;;;;;;;4.32;2.30;;;;;;;3.53;92.36;99233.50;4983627;28;20045;-79
2021/12/01 10:19:16;;;;;;;4.75;2.60;;;;;;;3.56;92.01;99227.72;4990067;28;20022;-79
2021/12/01 10:21:47;;;;;;;4.32;2.30;;;;;;;3.60;92.03;99234.97;4983585;28;20053;-79
2021/12/01 10:24:16;;;;;;;5.57;2.70;;;;;;;3.66;92.49;99227.91;4982106;28;20025;-79
2021/12/01 10:26:54;;;;;;;6.60;3.08;;;;;;;3.70;92.35;99229.03;4981425;28;20022;-78
2021/12/01 10:29:27;;;;;;;6.03;2.95;;;;;;;3.76;92.33;99219.31;5003381;28;20017;-79
2021/12/01 10:32:02;;;;;;;7.30;3.40;;;;;;;3.79;92.72;99214.38;4988345;28;20046;-79
2021/12/01 10:34:40;;;;;;;3.42;2.67;;;;;;;3.82;93.35;99216.53;5005878;28;20124;-79
2021/12/01 10:37:07;;;;;;;5.13;2.78;;;;;;;3.91;93.38;99199.16;4992638;28;20041;-79
2021/12/01 10:39:33;;;;;;;6.10;3.10;;;;;;;3.98;93.54;99193.72;4988226;28;20026;-79
2021/12/01 10:42:08;;;;;;;5.53;3.13;;;;;;;4.05;93.69;99188.25;4990158;28;20481;-79
2021/12/01 10:44:35;;;;;;;5.75;3.47;;;;;;;4.13;94.16;99182.50;4991638;28;20122;-79
2021/12/01 10:47:11;;;;;;;4.93;3.40;;;;;;;4.19;94.48;99184.19;4980788;28;20030;-79
2021/12/01 10:49:47;;;;;;;4.65;3.15;;;;;;;4.28;94.92;99171.31;5005861;28;20029;-79
2021/12/01 10:52:30;;;;;;;5.20;3.60;;;;;;;4.34;95.17;99165.84;5006837;28;20110;-79
2021/12/01 10:55:23;;;;;;;3.92;3.10;;;;;;;4.40;95.73;99170.16;5008217;28;20038;-79
2021/12/01 10:57:54;;;;;;;4.45;3.20;;;;;;;4.52;95.52;99165.56;4984697;28;20030;-79
2021/12/01 11:00:23;;;;;;;5.18;3.38;;;;;;;4.58;95.88;99166.41;4989296;28;20018;-78
2021/12/01 11:02:51;;;;;;;4.22;3.35;;;;;;;4.64;95.80;99159.31;5000086;28;20030;-79
2021/12/01 11:05:45;;;;;;;5.63;3.30;;;;;;;4.67;95.81;99148.19;4990691;28;20029;-80
2021/12/01 11:08:12;;;;;;;4.30;3.10;;;;;;;4.75;95.90;99131.84;4986135;28;20029;-79
2021/12/01 11:10:38;;;;;;;4.28;3.30;;;;;;;4.81;95.85;99130.84;4989744;28;20050;-79
2021/12/01 11:13:04;;;;;;;4.90;3.65;;;;;;;4.87;96.41;99124.56;5000278;28;20061;-79
2021/12/01 11:15:32;;;;;;;6.15;3.30;;;;;;;4.93;96.04;99125.41;4987525;28;20031;-79
2021/12/01 11:17:59;;;;;;;5.03;3.53;;;;;;;4.97;96.43;99118.53;4990248;28;20025;-79
2021/12/01 11:20:49;;;;;;;4.05;3.17;;;;;;;4.97;96.19;99111.38;4980246;28;20019;-79
2021/12/01 11:23:24;;;;;;;5.80;3.70;;;;;;;5.05;95.86;99116.25;5003752;28;20065;-79
2021/12/01 11:25:55;;;;;;;4.70;3.03;;;;;;;5.10;95.50;99108.31;4997028;28;20029;-79
2021/12/01 11:28:24;;;;;;;3.28;2.65;;;;;;;5.14;95.75;99096.13;4990673;28;20065;-79
2021/12/01 11:30:55;;;;;;;4.03;3.03;;;;;;;5.18;95.64;99092.97;4987424;28;20065;-79
2021/12/01 11:33:22;;;;;;;4.55;3.08;;;;;;;5.23;95.87;99083.22;5000262;28;20030;-79
2021/12/01 11:35:52;;;;;;;4.88;3.10;;;;;;;5.27;95.85;99072.88;5003840;28;20049;-79
2021/12/01 11:38:18;;;;;;;3.35;2.95;;;;;;;5.30;96.04;99070.50;5002504;28;20097;-80
2021/12/01 11:40:44;;;;;;;5.65;2.90;;;;;;;5.34;96.08;99065.47;4982264;28;20397;-79
2021/12/01 11:43:11;;;;;;;3.97;3.10;;;;;;;5.38;96.27;99058.59;4988846;28;20124;-79